Time;durP1;ratioP1;P1;durP2;ratioP2;P2;SDS_P1;SDS_P2;PMS_P1;PMS_P2;Temp;Humidity;BMP_temperature;BMP_pressure;BME280_temperature;BME280_humidity;BME280_pressure;Samples;Min_cycle;Max_cycle;Signal;HPM_P1;HPM_P2
2022/01/12 00:01:16;;;;;;;16.00;9.32;;;;;;;4.04;87.43;103476.56;5032963;28;20439;-53
2022/01/12 00:03:44;;;;;;;17.10;9.55;;;;;;;4.05;87.30;103472.88;5033452;28;20045;-50
2022/01/12 00:06:13;;;;;;;15.23;9.70;;;;;;;4.05;87.31;103471.00;5034456;28;20064;-50
2022/01/12 00:08:41;;;;;;;15.68;9.50;;;;;;;4.07;87.36;103480.81;5033149;28;20045;-51
2022/01/12 00:11:09;;;;;;;16.40;10.57;;;;;;;4.05;87.30;103489.06;5032923;28;20049;-53
2022/01/12 00:13:36;;;;;;;16.42;9.95;;;;;;;4.04;86.82;103501.69;5032121;28;20041;-53
2022/01/12 00:16:05;;;;;;;16.88;10.20;;;;;;;4.04;87.38;103504.41;5032446;28;20045;-49
2022/01/12 00:18:33;;;;;;;14.10;8.90;;;;;;;4.04;87.12;103495.44;5032363;28;20046;-47
2022/01/12 00:21:01;;;;;;;16.75;9.75;;;;;;;4.04;87.41;103492.72;5032578;28;20041;-52
2022/01/12 00:23:29;;;;;;;15.27;9.25;;;;;;;4.04;87.14;103493.59;5032035;28;20037;-54
2022/01/12 00:34:00;;;;;;;18.70;10.75;;;;;;;4.05;87.32;103510.63;5031840;28;20052;-51
2022/01/12 00:36:30;;;;;;;15.57;10.25;;;;;;;4.04;86.96;103514.31;5032226;28;20055;-50
2022/01/12 00:38:58;;;;;;;17.42;9.73;;;;;;;4.04;87.52;103514.31;5033467;28;20550;-50
2022/01/12 00:41:26;;;;;;;19.10;10.07;;;;;;;4.03;87.88;103512.63;5032508;28;20060;-49
2022/01/12 00:43:59;;;;;;;15.73;10.05;;;;;;;4.03;88.16;103518.03;5032250;28;20042;-49
2022/01/12 00:46:30;;;;;;;16.65;11.23;;;;;;;4.05;89.13;103532.22;5031589;28;20418;-50
2022/01/12 00:49:00;;;;;;;18.27;9.98;;;;;;;4.01;89.40;103531.66;5032111;28;20037;-50
2022/01/12 00:51:31;;;;;;;16.80;10.85;;;;;;;3.97;90.01;103537.53;5032345;28;20415;-50
2022/01/12 00:54:00;;;;;;;16.80;11.02;;;;;;;3.94;90.64;103540.56;5030696;28;20041;-50
2022/01/12 00:56:28;;;;;;;16.40;11.48;;;;;;;3.94;91.84;103546.78;5031908;28;20092;-52
2022/01/12 00:58:56;;;;;;;18.25;11.52;;;;;;;3.94;92.08;103548.66;5031351;28;20143;-49
2022/01/12 01:01:24;;;;;;;18.08;10.85;;;;;;;3.92;92.79;103546.13;5032776;28;20041;-49
2022/01/12 01:03:52;;;;;;;18.85;11.35;;;;;;;3.92;93.13;103539.84;5030725;28;20455;-47
2022/01/12 01:06:22;;;;;;;15.75;10.18;;;;;;;3.89;94.17;103535.63;5030045;28;20045;-50
2022/01/12 01:08:51;;;;;;;17.00;10.63;;;;;;;3.91;94.11;103543.56;5033539;28;20140;-50
2022/01/12 01:11:24;;;;;;;19.00;10.77;;;;;;;3.91;94.99;103539.00;5034506;28;20053;-49
2022/01/12 01:13:58;;;;;;;18.05;11.05;;;;;;;3.92;95.32;103537.16;5034528;28;20132;-53
2022/01/12 01:27:53;;;;;;;14.70;9.05;;;;;;;3.94;97.15;103521.66;5014233;28;20044;-51
2022/01/12 01:30:21;;;;;;;16.10;9.63;;;;;;;3.92;96.72;103529.06;4996782;28;20451;-49
2022/01/12 01:32:50;;;;;;;16.27;10.18;;;;;;;3.92;97.24;103539.84;4980511;28;20535;-48
2022/01/12 01:35:18;;;;;;;16.42;10.35;;;;;;;3.92;97.08;103545.25;5013183;28;20052;-48
2022/01/12 01:37:46;;;;;;;17.70;9.82;;;;;;;3.92;97.52;103538.03;5026722;28;20049;-48
2022/01/12 01:40:14;;;;;;;13.32;9.07;;;;;;;3.90;97.26;103544.59;5016555;28;20060;-49
2022/01/12 01:43:06;;;;;;;18.30;10.07;;;;;;;3.89;97.52;103553.66;5016138;28;20045;-49
2022/01/12 01:53:55;;;;;;;14.20;9.00;;;;;;;3.90;98.47;103533.81;5032759;28;20160;-48
2022/01/12 01:56:25;;;;;;;18.60;10.38;;;;;;;3.90;98.17;103533.81;5023684;28;20076;-49
2022/01/12 01:58:53;;;;;;;14.20;9.20;;;;;;;3.89;98.59;103532.09;5033537;28;20408;-47
2022/01/12 02:01:23;;;;;;;14.45;9.00;;;;;;;3.91;98.89;103527.38;5032940;28;20041;-53
2022/01/12 02:04:00;;;;;;;14.82;8.75;;;;;;;3.90;98.50;103523.84;5033657;28;20126;-50
2022/01/12 02:06:30;;;;;;;18.08;11.32;;;;;;;3.90;98.99;103512.22;5034089;28;20045;-48
2022/01/12 02:08:58;;;;;;;16.10;9.70;;;;;;;3.90;98.83;103518.47;5032654;28;20037;-50
2022/01/12 02:11:38;;;;;;;15.60;9.82;;;;;;;3.89;98.68;103505.13;5033068;28;20164;-50
2022/01/12 02:14:12;;;;;;;12.35;8.30;;;;;;;3.89;98.79;103515.91;5033354;28;20041;-50
2022/01/12 02:16:51;;;;;;;15.52;9.02;;;;;;;3.91;99.29;103519.28;5032895;28;20041;-48
2022/01/12 02:36:19;;;;;;;18.10;9.93;;;;;;;3.89;99.09;103538.31;5033710;28;20050;-53
2022/01/12 02:41:35;;;;;;;15.82;10.55;;;;;;;3.89;99.32;103537.47;5034087;28;20045;-51
2022/01/12 02:55:33;;;;;;;;;;;;;;;3.87;98.92;103556.50;5034285;28;20076;-49
2022/01/12 02:58:02;;;;;;;19.83;12.63;;;;;;;3.86;98.97;103571.00;5032705;28;20345;-50
2022/01/12 03:00:46;;;;;;;18.95;12.75;;;;;;;3.86;99.02;103576.41;5015716;28;20060;-50
2022/01/12 03:03:21;;;;;;;20.70;12.68;;;;;;;3.83;99.00;103572.16;5032315;28;20050;-53
2022/01/12 03:06:09;;;;;;;19.02;11.88;;;;;;;3.83;99.53;103577.56;5032251;28;20053;-52
2022/01/12 03:08:37;;;;;;;21.52;12.98;;;;;;;3.83;99.26;103587.50;5032716;28;20053;-49
2022/01/12 03:11:11;;;;;;;19.48;12.88;;;;;;;3.81;99.64;103590.34;5032248;28;20049;-50
2022/01/12 03:13:39;;;;;;;19.52;12.50;;;;;;;3.81;99.67;103595.75;5032341;28;20045;-47
2022/01/12 03:16:15;;;;;;;24.30;12.98;;;;;;;3.82;99.88;103596.59;5031566;28;20675;-49
2022/01/12 03:18:45;;;;;;;18.88;12.73;;;;;;;3.82;99.71;103599.28;5031648;28;20072;-49
2022/01/12 03:21:14;;;;;;;22.15;13.60;;;;;;;3.81;99.85;103603.84;5032039;28;20046;-50
2022/01/12 03:23:41;;;;;;;21.55;13.65;;;;;;;3.83;99.54;103609.09;5033392;28;20041;-49
2022/01/12 03:26:09;;;;;;;22.73;13.90;;;;;;;3.82;99.71;103607.38;5031737;28;20052;-53
2022/01/12 03:28:39;;;;;;;20.52;13.55;;;;;;;3.82;100.00;103599.28;5031616;28;20383;-48
2022/01/12 03:31:13;;;;;;;20.17;13.40;;;;;;;3.82;100.00;103605.53;5030975;28;20059;-52
2022/01/12 03:38:51;;;;;;;25.30;14.43;;;;;;;3.83;100.00;103604.53;5045771;28;20132;-51
2022/01/12 03:41:19;;;;;;;25.17;16.15;;;;;;;3.82;100.00;103613.63;5033811;28;20056;-46
2022/01/12 03:43:53;;;;;;;26.10;15.73;;;;;;;3.80;100.00;103614.75;5034402;28;20132;-49
2022/01/12 03:46:25;;;;;;;26.15;16.10;;;;;;;3.79;100.00;103603.13;5031494;28;20056;-46
2022/01/12 03:48:53;;;;;;;24.65;15.85;;;;;;;3.79;100.00;103599.59;5014953;28;20052;-48
2022/01/12 03:51:21;;;;;;;25.27;15.80;;;;;;;3.80;100.00;103604.84;5032931;28;20042;-51
2022/01/12 03:53:51;;;;;;;26.02;17.02;;;;;;;3.80;100.00;103610.25;5032847;28;20511;-52
2022/01/12 03:56:19;;;;;;;27.23;16.40;;;;;;;3.79;100.00;103624.72;5031051;28;20499;-50
2022/01/12 03:58:46;;;;;;;23.75;16.55;;;;;;;3.78;100.00;103622.19;5031414;28;20095;-49
2022/01/12 04:01:14;;;;;;;25.55;16.88;;;;;;;3.77;100.00;103621.31;5030672;28;20065;-47
2022/01/12 04:03:46;;;;;;;24.90;16.05;;;;;;;3.77;100.00;103615.91;5031131;28;20033;-52
2022/01/12 04:09:00;;;;;;;;;;;;;;;3.79;100.00;103629.25;5031439;28;20041;-51
2022/01/12 04:11:27;;;;;;;24.58;17.17;;;;;;;3.78;100.00;103623.03;5032116;28;19925;-49
2022/01/12 04:13:55;;;;;;;24.67;17.05;;;;;;;3.79;100.00;103618.47;5031540;28;20055;-50
2022/01/12 04:16:22;;;;;;;24.45;16.20;;;;;;;3.79;100.00;103619.31;5031636;28;20164;-49
2022/01/12 04:18:50;;;;;;;26.70;16.77;;;;;;;3.81;100.00;103624.56;5030939;28;20049;-50
2022/01/12 04:21:25;;;;;;;26.42;17.25;;;;;;;3.81;100.00;103632.66;5031198;28;20395;-48
2022/01/12 04:23:53;;;;;;;26.65;17.48;;;;;;;3.80;100.00;103631.81;5032736;28;20510;-47
2022/01/12 04:26:21;;;;;;;26.48;17.00;;;;;;;3.79;100.00;103630.09;5031167;28;20510;-49
2022/01/12 04:28:49;;;;;;;23.98;15.60;;;;;;;3.81;100.00;103621.88;5030666;28;20045;-52
2022/01/12 04:31:17;;;;;;;23.58;16.52;;;;;;;3.82;100.00;103619.03;5030693;28;20049;-47
2022/01/12 04:33:46;;;;;;;23.52;16.20;;;;;;;3.82;100.00;103613.63;5031133;28;20045;-50
2022/01/12 04:36:15;;;;;;;22.23;15.70;;;;;;;3.83;100.00;103612.63;5031853;28;20522;-49
2022/01/12 04:38:45;;;;;;;22.73;14.98;;;;;;;3.84;100.00;103602.69;5030796;28;20049;-52
2022/01/12 04:41:13;;;;;;;22.63;15.60;;;;;;;3.87;100.00;103601.50;5030907;28;20045;-51
2022/01/12 04:43:44;;;;;;;23.95;16.70;;;;;;;3.85;100.00;103601.69;5034311;28;20042;-49
2022/01/12 04:51:38;;;;;;;25.38;17.50;;;;;;;3.83;100.00;103620.72;5051478;28;20638;-51
2022/01/12 04:54:05;;;;;;;23.05;15.57;;;;;;;3.81;100.00;103611.94;5020424;28;20044;-49
2022/01/12 04:56:33;;;;;;;21.02;15.05;;;;;;;3.82;100.00;103597.47;5037132;28;20103;-49
2022/01/12 04:59:02;;;;;;;22.15;15.15;;;;;;;3.81;100.00;103590.34;5034583;28;20037;-49
2022/01/12 05:01:35;;;;;;;23.08;16.48;;;;;;;3.81;100.00;103593.03;5036306;28;20098;-49
2022/01/12 05:07:12;;;;;;;;;;;;;;;3.80;100.00;103603.97;5014838;28;20042;-54
2022/01/12 05:09:50;;;;;;;27.40;17.20;;;;;;;3.79;100.00;103608.53;5000294;28;19921;-52
2022/01/12 05:15:13;;;;;;;25.27;16.30;;;;;;;3.82;100.00;103610.06;4997156;28;20489;-56
2022/01/12 05:17:41;;;;;;;23.05;16.42;;;;;;;3.82;100.00;103612.75;5005840;28;20041;-55
2022/01/12 05:20:09;;;;;;;26.30;17.88;;;;;;;3.82;100.00;103613.63;5016747;28;20045;-54
2022/01/12 05:22:37;;;;;;;26.35;17.92;;;;;;;3.82;100.00;103613.63;5016564;28;20076;-49
2022/01/12 05:25:05;;;;;;;20.08;13.65;;;;;;;3.84;100.00;103610.75;5032885;28;20037;-55
2022/01/12 05:27:33;;;;;;;25.75;17.25;;;;;;;3.84;100.00;103613.47;5033259;28;20103;-50
2022/01/12 05:30:00;;;;;;;25.65;17.67;;;;;;;3.83;100.00;103618.00;4998148;28;20515;-49
2022/01/12 05:32:29;;;;;;;26.65;17.98;;;;;;;3.83;100.00;103626.09;5025584;28;20081;-54
2022/01/12 05:35:02;;;;;;;26.80;17.88;;;;;;;3.84;100.00;103626.94;5014715;28;20169;-51
2022/01/12 05:37:32;;;;;;;27.58;18.05;;;;;;;3.83;100.00;103631.50;4998358;28;20064;-50
2022/01/12 05:40:01;;;;;;;26.42;18.23;;;;;;;3.82;100.00;103637.91;5026561;28;20049;-50
2022/01/12 05:42:33;;;;;;;27.90;18.52;;;;;;;3.81;100.00;103638.88;5020656;28;20054;-52
2022/01/12 05:45:02;;;;;;;26.35;18.38;;;;;;;3.80;100.00;103633.63;4998058;28;20559;-52
2022/01/12 05:49:34;;;;;;;25.45;18.30;;;;;;;3.81;100.00;103632.66;5013528;28;20428;-55
2022/01/12 05:50:19;;;;;;;29.00;19.27;;;;;;;3.80;100.00;103631.81;5009789;28;20048;-50
2022/01/12 05:52:47;;;;;;;24.85;17.83;;;;;;;3.80;100.00;103629.13;5017366;28;20033;-55
2022/01/12 05:55:15;;;;;;;26.65;18.83;;;;;;;3.80;100.00;103631.81;5013251;28;20046;-52
2022/01/12 05:57:44;;;;;;;28.95;18.77;;;;;;;3.82;100.00;103627.13;4997240;28;20053;-55
2022/01/12 06:00:15;;;;;;;27.27;18.98;;;;;;;3.82;100.00;103629.81;5021400;28;20057;-54
2022/01/12 06:02:49;;;;;;;26.58;18.60;;;;;;;3.83;100.00;103630.66;5032862;28;20722;-53
2022/01/12 06:05:19;;;;;;;25.88;18.73;;;;;;;3.82;100.00;103629.81;5033032;28;20049;-52
2022/01/12 06:07:48;;;;;;;24.60;17.95;;;;;;;3.82;100.00;103637.91;5033255;28;20041;-53
2022/01/12 06:10:17;;;;;;;28.65;19.15;;;;;;;3.81;100.00;103633.50;5032900;28;20484;-52
2022/01/12 06:12:46;;;;;;;26.70;19.00;;;;;;;3.79;100.00;103640.88;5033143;28;20089;-51
2022/01/12 06:15:19;;;;;;;26.50;19.42;;;;;;;3.80;100.00;103642.59;5032715;28;20053;-48
2022/01/12 06:17:48;;;;;;;29.27;19.85;;;;;;;3.80;100.00;103648.00;5032683;28;20038;-51
2022/01/12 06:20:16;;;;;;;28.15;20.05;;;;;;;3.81;100.00;103657.78;5033176;28;20543;-51
2022/01/12 06:23:17;;;;;;;26.48;19.17;;;;;;;3.80;100.00;103669.56;5033493;28;20176;-51
2022/01/12 06:25:52;;;;;;;26.40;20.08;;;;;;;3.79;100.00;103667.00;5033816;28;20494;-49
2022/01/12 06:28:23;;;;;;;25.98;19.45;;;;;;;3.77;100.00;103672.56;5033962;28;20045;-48
2022/01/12 06:33:42;;;;;;;27.30;20.85;;;;;;;3.75;100.00;103677.28;5032401;28;20119;-52
2022/01/12 06:36:12;;;;;;;27.15;19.63;;;;;;;3.75;100.00;103681.78;5032133;28;20050;-51
2022/01/12 06:38:41;;;;;;;27.50;20.52;;;;;;;3.75;100.00;103693.47;5032914;28;20060;-56
2022/01/12 06:41:10;;;;;;;30.77;21.02;;;;;;;3.69;100.00;103699.44;5032799;28;20045;-52
2022/01/12 06:43:39;;;;;;;27.55;20.83;;;;;;;3.69;100.00;103709.38;5032504;28;20049;-51
2022/01/12 06:46:08;;;;;;;28.00;20.45;;;;;;;3.67;100.00;103701.44;5012645;28;20129;-55
2022/01/12 06:48:37;;;;;;;26.10;19.40;;;;;;;3.67;100.00;103696.03;5030620;28;20503;-53
2022/01/12 06:51:05;;;;;;;28.20;20.45;;;;;;;3.70;100.00;103698.44;5032694;28;20137;-51
2022/01/12 06:53:33;;;;;;;27.52;19.52;;;;;;;3.72;100.00;103704.53;5032636;28;20049;-54
2022/01/12 06:56:02;;;;;;;27.25;20.50;;;;;;;3.73;100.00;103700.84;5032258;28;20049;-48
2022/01/12 06:58:33;;;;;;;28.83;20.60;;;;;;;3.73;100.00;103706.25;5031922;28;20049;-52
2022/01/12 07:01:01;;;;;;;29.35;20.75;;;;;;;3.74;100.00;103725.94;5031994;28;20567;-50
2022/01/12 07:03:32;;;;;;;29.45;21.50;;;;;;;3.74;100.00;103712.47;4337306;28;10000625;-51
2022/01/12 07:06:01;;;;;;;26.83;20.10;;;;;;;3.73;100.00;103710.75;5030601;28;20053;-51
2022/01/12 07:08:30;;;;;;;27.30;20.30;;;;;;;3.74;100.00;103716.00;5029372;28;20056;-50
2022/01/12 07:10:59;;;;;;;27.02;20.02;;;;;;;3.74;100.00;103726.78;5030307;28;20057;-52
2022/01/12 07:13:27;;;;;;;28.98;20.98;;;;;;;3.76;100.00;103721.25;5030809;28;20103;-48
2022/01/12 07:15:57;;;;;;;26.85;20.52;;;;;;;3.79;100.00;103713.69;5031903;28;20046;-49
2022/01/12 07:18:28;;;;;;;26.73;20.17;;;;;;;3.79;100.00;103715.56;5031681;28;20037;-51
2022/01/12 07:20:56;;;;;;;25.75;19.50;;;;;;;3.79;100.00;103720.94;5030321;28;20049;-52
2022/01/12 07:23:25;;;;;;;26.10;18.27;;;;;;;3.78;100.00;103724.66;5031289;28;20408;-52
2022/01/12 07:25:53;;;;;;;29.02;20.98;;;;;;;3.72;100.00;103736.88;5031440;28;20037;-52
2022/01/12 07:28:21;;;;;;;31.08;23.10;;;;;;;3.69;100.00;103747.13;5030723;28;20033;-54
2022/01/12 07:30:49;;;;;;;30.65;21.17;;;;;;;3.65;100.00;103753.81;5030405;28;20053;-51
2022/01/12 07:33:17;;;;;;;31.45;21.58;;;;;;;3.64;100.00;103761.06;5031359;28;20057;-54
2022/01/12 07:35:45;;;;;;;33.00;23.27;;;;;;;3.63;100.00;103764.75;5029952;28;20076;-51
2022/01/12 07:38:14;;;;;;;32.13;22.20;;;;;;;3.62;100.00;103774.69;5031050;28;20053;-51
2022/01/12 07:40:41;;;;;;;30.70;21.77;;;;;;;3.64;100.00;103766.44;5030274;28;20048;-53
2022/01/12 07:43:09;;;;;;;33.63;22.17;;;;;;;3.67;100.00;103770.69;5031119;28;20049;-52
2022/01/12 07:45:38;;;;;;;33.17;22.23;;;;;;;3.67;100.00;103771.53;5031371;28;20071;-52
2022/01/12 07:48:05;;;;;;;43.42;22.75;;;;;;;3.68;100.00;103767.84;5031149;28;20057;-49
2022/01/12 07:50:33;;;;;;;33.45;22.13;;;;;;;3.69;100.00;103768.69;5030538;28;20087;-49
2022/01/12 07:53:01;;;;;;;35.92;22.63;;;;;;;3.70;100.00;103770.38;5028784;28;20471;-53
2022/01/12 07:55:28;;;;;;;36.13;22.48;;;;;;;3.69;100.00;103780.34;5030667;28;20439;-50
2022/01/12 07:57:56;;;;;;;36.75;22.38;;;;;;;3.71;100.00;103788.28;5031037;28;20056;-51
2022/01/12 08:00:24;;;;;;;36.45;23.00;;;;;;;3.71;100.00;103791.81;5030668;28;20508;-49
2022/01/12 08:02:52;;;;;;;35.40;23.17;;;;;;;3.71;100.00;103813.41;5043628;28;20041;-50
2022/01/12 08:05:19;;;;;;;33.63;22.80;;;;;;;3.72;100.00;103809.69;5010893;28;20125;-50
2022/01/12 08:07:48;;;;;;;35.53;22.90;;;;;;;3.72;100.00;103827.72;5011052;28;20540;-50
2022/01/12 08:10:16;;;;;;;37.63;23.23;;;;;;;3.73;100.00;103824.00;5022232;28;20050;-48
2022/01/12 08:12:44;;;;;;;38.67;23.08;;;;;;;3.73;100.00;103824.88;5030673;28;20052;-47
2022/01/12 08:15:12;;;;;;;40.85;23.88;;;;;;;3.74;100.00;103823.88;5031525;28;20141;-49
2022/01/12 08:17:40;;;;;;;40.78;23.80;;;;;;;3.75;100.00;103831.00;5032394;28;20064;-49
2022/01/12 08:20:15;;;;;;;37.58;22.00;;;;;;;3.77;100.00;103825.44;5034571;28;20080;-52
2022/01/12 08:22:42;;;;;;;32.50;21.85;;;;;;;3.80;100.00;103825.13;5034908;28;20055;-50
2022/01/12 08:25:10;;;;;;;32.83;20.10;;;;;;;3.84;100.00;103829.22;5035228;28;20041;-53
2022/01/12 08:27:39;;;;;;;32.00;18.33;;;;;;;3.91;100.00;103832.19;5034975;28;20057;-52
2022/01/12 08:30:15;;;;;;;33.40;23.45;;;;;;;3.92;100.00;103839.25;5034507;28;20140;-50
2022/01/12 08:32:45;;;;;;;39.33;24.40;;;;;;;3.90;100.00;103841.28;5033838;28;20054;-51
2022/01/12 08:35:13;;;;;;;38.72;25.02;;;;;;;3.88;100.00;103837.88;5033936;28;20042;-50
2022/01/12 08:37:41;;;;;;;35.78;22.85;;;;;;;3.84;100.00;103832.75;5022690;28;20382;-51
2022/01/12 08:40:10;;;;;;;34.30;23.50;;;;;;;3.85;100.00;103839.03;5015526;28;20150;-49
2022/01/12 08:42:38;;;;;;;37.28;23.58;;;;;;;3.83;100.00;103836.47;5030521;28;20048;-55
2022/01/12 08:45:06;;;;;;;36.08;23.65;;;;;;;3.83;100.00;103832.94;5035405;28;20052;-55
2022/01/12 08:47:34;;;;;;;33.90;23.05;;;;;;;3.82;100.00;103837.50;5034310;28;20068;-56
2022/01/12 08:50:03;;;;;;;34.53;23.65;;;;;;;3.83;100.00;103835.63;5035129;28;20393;-57
2022/01/12 08:52:30;;;;;;;32.22;23.08;;;;;;;3.87;100.00;103838.88;5035688;28;20052;-50
2022/01/12 08:55:00;;;;;;;33.25;23.33;;;;;;;3.90;100.00;103841.28;5035189;28;20412;-49
2022/01/12 08:57:31;;;;;;;33.90;23.10;;;;;;;3.93;100.00;103844.53;5035901;28;20476;-47
2022/01/12 09:00:00;;;;;;;35.53;23.00;;;;;;;3.97;100.00;103845.06;5035720;28;20050;-49
2022/01/12 09:02:28;;;;;;;30.52;21.13;;;;;;;3.99;100.00;103840.38;5035649;28;20567;-50
2022/01/12 09:04:56;;;;;;;32.40;22.08;;;;;;;4.00;100.00;103842.09;5035683;28;20065;-48
2022/01/12 09:07:24;;;;;;;27.27;19.75;;;;;;;3.98;100.00;103854.88;4677032;28;10000360;-51
2022/01/12 09:09:52;;;;;;;30.27;20.17;;;;;;;3.97;100.00;103856.72;5033760;28;20077;-52
2022/01/12 09:12:25;;;;;;;27.45;19.20;;;;;;;3.97;100.00;103861.25;5033757;28;20042;-53
2022/01/12 09:14:53;;;;;;;28.02;19.50;;;;;;;3.94;100.00;103862.41;5034055;28;20045;-51
2022/01/12 09:17:23;;;;;;;25.42;18.63;;;;;;;3.91;100.00;103869.94;5032893;28;20042;-50
2022/01/12 09:19:52;;;;;;;27.00;18.85;;;;;;;3.90;100.00;103873.66;5033429;28;20475;-50
2022/01/12 09:22:20;;;;;;;25.75;17.85;;;;;;;3.88;100.00;103878.34;5033632;28;20049;-48
2022/01/12 09:24:49;;;;;;;25.65;18.00;;;;;;;3.87;100.00;103884.72;5033649;28;20045;-50
2022/01/12 09:27:18;;;;;;;27.13;17.05;;;;;;;3.83;100.00;103887.72;5032573;28;20053;-54
2022/01/12 09:29:46;;;;;;;26.88;18.33;;;;;;;3.84;100.00;103892.09;5031915;28;20053;-48
2022/01/12 09:32:15;;;;;;;30.30;18.70;;;;;;;3.80;100.00;103896.13;5032520;28;20045;-47
2022/01/12 09:34:42;;;;;;;27.55;18.00;;;;;;;3.78;100.00;103898.09;5033298;28;20151;-50
2022/01/12 09:37:11;;;;;;;35.42;20.02;;;;;;;3.76;100.00;103905.47;5033605;28;20488;-49
2022/01/12 09:39:38;;;;;;;31.08;19.20;;;;;;;3.75;100.00;103901.09;5035231;28;20495;-55
2022/01/12 09:42:07;;;;;;;26.70;18.98;;;;;;;3.74;100.00;103907.47;5034839;28;20490;-50
2022/01/12 09:44:37;;;;;;;29.33;19.70;;;;;;;3.75;100.00;103914.59;5034913;28;20044;-51
2022/01/12 09:47:06;;;;;;;26.25;18.60;;;;;;;3.75;100.00;103909.19;5033499;28;20037;-54
2022/01/12 09:49:34;;;;;;;24.55;18.20;;;;;;;3.75;100.00;103919.97;5034830;28;20403;-52
2022/01/12 09:52:02;;;;;;;26.95;18.50;;;;;;;3.75;100.00;103925.38;5034704;28;20489;-51
2022/01/12 09:54:30;;;;;;;28.90;18.42;;;;;;;3.74;100.00;103923.66;5033996;28;20051;-51
2022/01/12 09:56:59;;;;;;;32.72;17.77;;;;;;;3.68;100.00;103928.78;5034501;28;20041;-49
2022/01/12 09:59:27;;;;;;;26.13;18.33;;;;;;;3.60;100.00;103929.50;5036033;28;20042;-49
2022/01/12 10:01:55;;;;;;;26.67;18.90;;;;;;;3.62;100.00;103935.59;5033642;28;20132;-52
2022/01/12 10:04:26;;;;;;;27.30;17.83;;;;;;;3.65;100.00;103940.69;5034825;28;20049;-50
2022/01/12 10:06:58;;;;;;;28.15;16.08;;;;;;;3.60;100.00;103942.97;5034359;28;20064;-51
2022/01/12 10:09:35;;;;;;;26.88;17.15;;;;;;;3.60;100.00;103942.97;5034499;28;20041;-53
2022/01/12 10:12:08;;;;;;;26.83;17.70;;;;;;;3.49;100.00;103946.69;5034673;28;20037;-56
2022/01/12 10:14:52;;;;;;;26.25;18.05;;;;;;;3.34;100.00;103943.59;5033561;28;20092;-55
2022/01/12 10:17:30;;;;;;;27.35;17.17;;;;;;;3.38;100.00;103938.75;5033887;28;20063;-56
2022/01/12 10:20:11;;;;;;;30.08;17.65;;;;;;;3.46;100.00;103940.72;5033775;28;20045;-53
2022/01/12 10:22:43;;;;;;;30.45;18.13;;;;;;;3.52;100.00;103940.16;5034346;28;20440;-52
2022/01/12 10:25:19;;;;;;;30.85;18.70;;;;;;;3.56;100.00;103930.78;5034518;28;20065;-49
2022/01/12 10:27:48;;;;;;;30.23;19.48;;;;;;;3.60;100.00;103926.81;5032408;28;20064;-48
2022/01/12 10:30:27;;;;;;;33.72;20.00;;;;;;;3.59;100.00;103923.28;5034068;28;20041;-56
2022/01/12 10:33:10;;;;;;;33.20;19.73;;;;;;;3.61;100.00;103918.59;5034186;28;20048;-54
2022/01/12 10:35:40;;;;;;;33.08;19.23;;;;;;;3.58;100.00;103928.78;5033714;28;20041;-55
2022/01/12 10:38:16;;;;;;;31.67;19.48;;;;;;;3.49;100.00;103943.13;5033448;28;20058;-51
2022/01/12 10:40:52;;;;;;;30.75;17.80;;;;;;;3.48;100.00;103934.19;5032734;28;20049;-58
2022/01/12 10:43:27;;;;;;;31.67;18.55;;;;;;;3.56;100.00;103937.03;5034091;28;20053;-56
2022/01/12 10:45:55;;;;;;;31.17;18.63;;;;;;;3.48;100.00;103947.69;5033970;28;20045;-52
2022/01/12 10:48:25;;;;;;;34.35;18.45;;;;;;;3.42;100.00;103943.72;5033952;28;20044;-52
2022/01/12 10:50:55;;;;;;;31.73;18.33;;;;;;;3.47;100.00;103937.06;5033193;28;20128;-51
2022/01/12 10:53:31;;;;;;;35.13;20.80;;;;;;;3.70;100.00;103942.97;5034193;28;20049;-49
2022/01/12 10:56:08;;;;;;;32.22;19.23;;;;;;;3.77;100.00;103944.94;5033544;28;20059;-52
2022/01/12 10:58:39;;;;;;;31.05;18.75;;;;;;;3.78;100.00;103943.09;5033744;28;20127;-47
2022/01/12 11:01:08;;;;;;;30.13;17.70;;;;;;;3.75;100.00;103944.25;5033020;28;20077;-53
2022/01/12 11:03:37;;;;;;;34.90;19.75;;;;;;;3.71;100.00;103942.00;5033501;28;20109;-52
2022/01/12 11:06:06;;;;;;;33.00;19.52;;;;;;;3.75;100.00;103929.88;5033000;28;20042;-50
2022/01/12 11:08:35;;;;;;;31.83;19.98;;;;;;;3.76;100.00;103931.59;5033053;28;20558;-51
2022/01/12 11:11:03;;;;;;;34.47;20.52;;;;;;;3.74;100.00;103939.00;5023484;28;20067;-50
2022/01/12 11:13:32;;;;;;;35.47;21.48;;;;;;;3.75;100.00;103940.69;5033402;28;20046;-51
2022/01/12 11:16:00;;;;;;;36.40;21.17;;;;;;;3.75;100.00;103937.97;5032933;28;20508;-52
2022/01/12 11:18:36;;;;;;;33.92;20.98;;;;;;;3.76;100.00;103945.94;5033193;28;20072;-50
2022/01/12 11:21:27;;;;;;;33.40;20.00;;;;;;;3.82;100.00;103950.75;5031776;28;20124;-51
2022/01/12 11:23:59;;;;;;;34.53;20.45;;;;;;;3.84;100.00;103950.59;5031936;28;20045;-49
2022/01/12 11:26:29;;;;;;;34.40;19.33;;;;;;;3.83;100.00;103944.34;5029945;28;20504;-49
2022/01/12 11:28:57;;;;;;;31.60;17.80;;;;;;;3.69;100.00;103942.13;5032660;28;20041;-49
2022/01/12 11:31:34;;;;;;;35.60;19.63;;;;;;;3.61;100.00;103950.09;5032318;28;20042;-51
2022/01/12 11:34:01;;;;;;;31.30;19.55;;;;;;;3.62;100.00;103954.47;5033881;28;20047;-46
2022/01/12 11:36:38;;;;;;;28.75;17.50;;;;;;;3.60;100.00;103948.38;5032833;28;20124;-47
2022/01/12 11:39:32;;;;;;;31.70;19.40;;;;;;;3.61;100.00;103939.31;5032304;28;20076;-54
2022/01/12 11:41:59;;;;;;;32.13;17.60;;;;;;;3.70;100.00;103946.50;5030827;28;20401;-53
2022/01/12 11:44:34;;;;;;;33.08;18.63;;;;;;;3.80;100.00;103941.09;5032932;28;20139;-51
2022/01/12 11:47:04;;;;;;;30.90;18.67;;;;;;;3.84;100.00;103935.25;5032641;28;20042;-47
2022/01/12 11:49:39;;;;;;;34.03;18.27;;;;;;;3.91;100.00;103923.91;5032980;28;20079;-50
2022/01/12 11:52:30;;;;;;;32.38;19.73;;;;;;;3.96;100.00;103911.66;5032202;28;20049;-49
2022/01/12 11:55:11;;;;;;;32.72;19.13;;;;;;;3.99;100.00;103921.31;5031903;28;20041;-48
2022/01/12 11:57:42;;;;;;;32.85;19.75;;;;;;;4.00;100.00;103939.22;5032537;28;20100;-49
2022/01/12 12:00:15;;;;;;;34.90;20.45;;;;;;;3.90;100.00;103941.09;5032202;28;20518;-50
2022/01/12 12:02:50;;;;;;;36.00;19.60;;;;;;;3.82;100.00;103942.69;5031347;28;20037;-50
2022/01/12 12:05:20;;;;;;;30.75;19.35;;;;;;;3.81;100.00;103946.34;5032194;28;20484;-51
2022/01/12 12:07:53;;;;;;;33.42;19.88;;;;;;;3.81;100.00;103946.34;5030681;28;20041;-52
2022/01/12 12:10:25;;;;;;;30.40;18.90;;;;;;;3.83;100.00;103941.66;5032666;28;20054;-51
2022/01/12 12:12:55;;;;;;;32.50;18.90;;;;;;;3.87;100.00;103944.06;5032278;28;20049;-50
2022/01/12 12:15:24;;;;;;;31.40;18.20;;;;;;;3.88;100.00;103943.94;5032485;28;20045;-53
2022/01/12 12:17:53;;;;;;;30.35;18.90;;;;;;;3.92;100.00;103941.78;5032128;28;20464;-49
2022/01/12 12:20:22;;;;;;;32.55;18.50;;;;;;;3.95;100.00;103947.75;5032234;28;20053;-51
2022/01/12 12:22:54;;;;;;;31.85;19.05;;;;;;;3.98;100.00;103943.91;5032208;28;20045;-52
2022/01/12 12:25:28;;;;;;;34.38;19.02;;;;;;;4.00;100.00;103944.59;5032214;28;20049;-52
2022/01/12 12:28:00;;;;;;;27.10;17.13;;;;;;;3.99;100.00;103943.75;5032343;28;20041;-49
2022/01/12 12:30:31;;;;;;;31.42;18.45;;;;;;;4.02;100.00;103948.84;5031945;28;20140;-53
2022/01/12 12:33:13;;;;;;;31.75;19.23;;;;;;;4.04;100.00;103943.28;5032003;28;20045;-50
2022/01/12 12:35:43;;;;;;;33.50;19.38;;;;;;;4.05;100.00;103942.31;5032262;28;20095;-51
2022/01/12 12:38:13;;;;;;;32.92;19.50;;;;;;;4.07;100.00;103932.22;5032589;28;20061;-54
2022/01/12 12:40:48;;;;;;;30.65;17.40;;;;;;;4.11;100.00;103930.06;5032491;28;20077;-48
2022/01/12 12:43:23;;;;;;;24.15;14.68;;;;;;;4.16;100.00;103912.44;5031930;28;20469;-49
2022/01/12 12:45:59;;;;;;;27.38;15.50;;;;;;;4.21;100.00;103910.16;5032294;28;20141;-50
2022/01/12 12:48:35;;;;;;;26.02;15.65;;;;;;;4.26;100.00;103910.53;5032617;28;20065;-50